sensor_id;sensor_type;location;lat;lon;timestamp;temperature;humidity
71188;DHT22;58893;53.130;8.158;2022-11-20T00:00:51;4.60;65.90
71188;DHT22;58893;53.130;8.158;2022-11-20T00:03:16;4.60;65.90
71188;DHT22;58893;53.130;8.158;2022-11-20T00:05:43;4.60;66.00
71188;DHT22;58893;53.130;8.158;2022-11-20T00:08:09;4.60;66.00
71188;DHT22;58893;53.130;8.158;2022-11-20T00:10:39;4.60;66.10
71188;DHT22;58893;53.130;8.158;2022-11-20T00:13:05;4.60;66.00
71188;DHT22;58893;53.130;8.158;2022-11-20T00:15:31;4.60;66.00
71188;DHT22;58893;53.130;8.158;2022-11-20T00:17:56;4.60;66.10
71188;DHT22;58893;53.130;8.158;2022-11-20T00:20:22;4.60;66.10
71188;DHT22;58893;53.130;8.158;2022-11-20T00:22:49;4.60;66.10
71188;DHT22;58893;53.130;8.158;2022-11-20T00:25:15;4.70;66.10
71188;DHT22;58893;53.130;8.158;2022-11-20T00:27:40;4.70;66.00
71188;DHT22;58893;53.130;8.158;2022-11-20T00:30:07;4.70;66.00
71188;DHT22;58893;53.130;8.158;2022-11-20T00:32:32;4.70;66.00
71188;DHT22;58893;53.130;8.158;2022-11-20T00:34:58;4.70;65.90
71188;DHT22;58893;53.130;8.158;2022-11-20T00:37:24;4.70;65.90
71188;DHT22;58893;53.130;8.158;2022-11-20T00:39:49;4.70;65.90
71188;DHT22;58893;53.130;8.158;2022-11-20T00:42:15;4.70;65.90
71188;DHT22;58893;53.130;8.158;2022-11-20T00:44:40;4.70;65.90
71188;DHT22;58893;53.130;8.158;2022-11-20T00:47:06;4.70;65.80
71188;DHT22;58893;53.130;8.158;2022-11-20T00:49:31;4.70;65.80
71188;DHT22;58893;53.130;8.158;2022-11-20T00:51:57;4.70;65.80
71188;DHT22;58893;53.130;8.158;2022-11-20T00:54:23;4.70;65.80
71188;DHT22;58893;53.130;8.158;2022-11-20T00:56:48;4.70;65.90
71188;DHT22;58893;53.130;8.158;2022-11-20T00:59:14;4.70;65.90
71188;DHT22;58893;53.130;8.158;2022-11-20T01:01:39;4.70;66.00
71188;DHT22;58893;53.130;8.158;2022-11-20T01:04:05;4.70;66.10
71188;DHT22;58893;53.130;8.158;2022-11-20T01:06:34;4.80;66.30
71188;DHT22;58893;53.130;8.158;2022-11-20T01:09:08;4.80;66.40
71188;DHT22;58893;53.130;8.158;2022-11-20T01:11:37;4.80;66.30
71188;DHT22;58893;53.130;8.158;2022-11-20T01:14:05;4.80;66.30
71188;DHT22;58893;53.130;8.158;2022-11-20T01:16:37;4.80;66.20
71188;DHT22;58893;53.130;8.158;2022-11-20T01:19:05;4.80;66.30
71188;DHT22;58893;53.130;8.158;2022-11-20T01:21:36;4.80;66.30
71188;DHT22;58893;53.130;8.158;2022-11-20T01:24:03;4.80;66.40
71188;DHT22;58893;53.130;8.158;2022-11-20T01:26:32;4.80;66.40
71188;DHT22;58893;53.130;8.158;2022-11-20T01:28:59;4.80;66.50
71188;DHT22;58893;53.130;8.158;2022-11-20T01:31:27;4.80;66.40
71188;DHT22;58893;53.130;8.158;2022-11-20T01:33:55;4.80;66.30
71188;DHT22;58893;53.130;8.158;2022-11-20T01:36:22;4.80;66.40
71188;DHT22;58893;53.130;8.158;2022-11-20T01:38:52;4.80;66.40
71188;DHT22;58893;53.130;8.158;2022-11-20T01:41:18;4.80;66.30
71188;DHT22;58893;53.130;8.158;2022-11-20T01:44:03;4.80;66.30
71188;DHT22;58893;53.130;8.158;2022-11-20T01:46:34;4.80;66.40
71188;DHT22;58893;53.130;8.158;2022-11-20T01:49:16;4.80;66.30
71188;DHT22;58893;53.130;8.158;2022-11-20T01:52:22;4.80;66.30
71188;DHT22;58893;53.130;8.158;2022-11-20T01:54:46;4.80;66.30
71188;DHT22;58893;53.130;8.158;2022-11-20T01:57:13;4.80;66.30
71188;DHT22;58893;53.130;8.158;2022-11-20T01:59:44;4.80;66.30
71188;DHT22;58893;53.130;8.158;2022-11-20T02:02:13;4.80;66.30
71188;DHT22;58893;53.130;8.158;2022-11-20T02:04:38;4.80;66.40
71188;DHT22;58893;53.130;8.158;2022-11-20T02:07:04;4.80;66.40
71188;DHT22;58893;53.130;8.158;2022-11-20T02:09:30;4.80;66.40
71188;DHT22;58893;53.130;8.158;2022-11-20T02:11:57;4.80;66.40
71188;DHT22;58893;53.130;8.158;2022-11-20T02:14:23;4.80;66.40
71188;DHT22;58893;53.130;8.158;2022-11-20T02:16:49;4.80;66.40
71188;DHT22;58893;53.130;8.158;2022-11-20T02:19:28;4.80;66.50
71188;DHT22;58893;53.130;8.158;2022-11-20T02:22:12;4.80;66.50
71188;DHT22;58893;53.130;8.158;2022-11-20T02:24:41;4.80;66.70
71188;DHT22;58893;53.130;8.158;2022-11-20T02:27:11;4.80;66.80
71188;DHT22;58893;53.130;8.158;2022-11-20T02:29:41;4.80;66.80
71188;DHT22;58893;53.130;8.158;2022-11-20T02:32:21;4.80;66.70
71188;DHT22;58893;53.130;8.158;2022-11-20T02:34:47;4.80;66.80
71188;DHT22;58893;53.130;8.158;2022-11-20T02:37:14;4.80;66.70
71188;DHT22;58893;53.130;8.158;2022-11-20T02:39:40;4.80;66.70
71188;DHT22;58893;53.130;8.158;2022-11-20T02:42:07;4.80;66.70
71188;DHT22;58893;53.130;8.158;2022-11-20T02:44:32;4.80;66.80
71188;DHT22;58893;53.130;8.158;2022-11-20T02:46:58;4.80;66.80
71188;DHT22;58893;53.130;8.158;2022-11-20T02:49:24;4.80;66.80
71188;DHT22;58893;53.130;8.158;2022-11-20T02:51:50;4.80;66.80
71188;DHT22;58893;53.130;8.158;2022-11-20T02:54:16;4.80;66.80
71188;DHT22;58893;53.130;8.158;2022-11-20T02:56:41;4.80;67.40
71188;DHT22;58893;53.130;8.158;2022-11-20T02:59:07;4.80;66.70
71188;DHT22;58893;53.130;8.158;2022-11-20T03:01:33;4.80;66.70
71188;DHT22;58893;53.130;8.158;2022-11-20T03:03:59;4.80;66.70
71188;DHT22;58893;53.130;8.158;2022-11-20T03:06:24;4.80;66.60
71188;DHT22;58893;53.130;8.158;2022-11-20T03:08:50;4.80;66.60
71188;DHT22;58893;53.130;8.158;2022-11-20T03:11:15;4.80;66.50
71188;DHT22;58893;53.130;8.158;2022-11-20T03:13:42;4.80;66.50
71188;DHT22;58893;53.130;8.158;2022-11-20T03:16:17;4.80;66.50
71188;DHT22;58893;53.130;8.158;2022-11-20T03:18:43;4.80;66.50
71188;DHT22;58893;53.130;8.158;2022-11-20T03:21:10;4.80;66.40
71188;DHT22;58893;53.130;8.158;2022-11-20T03:23:36;4.80;66.40
71188;DHT22;58893;53.130;8.158;2022-11-20T03:26:19;4.80;66.50
71188;DHT22;58893;53.130;8.158;2022-11-20T03:28:50;4.80;66.50
71188;DHT22;58893;53.130;8.158;2022-11-20T03:31:18;4.80;66.50
71188;DHT22;58893;53.130;8.158;2022-11-20T03:33:44;4.80;66.50
71188;DHT22;58893;53.130;8.158;2022-11-20T03:36:12;4.80;66.40
71188;DHT22;58893;53.130;8.158;2022-11-20T03:38:38;4.80;66.30
71188;DHT22;58893;53.130;8.158;2022-11-20T03:41:06;4.80;66.20
71188;DHT22;58893;53.130;8.158;2022-11-20T03:43:32;4.80;66.10
71188;DHT22;58893;53.130;8.158;2022-11-20T03:45:58;4.80;66.00
71188;DHT22;58893;53.130;8.158;2022-11-20T03:48:24;4.80;65.90
71188;DHT22;58893;53.130;8.158;2022-11-20T03:50:51;4.90;66.00
71188;DHT22;58893;53.130;8.158;2022-11-20T03:53:17;4.90;65.90
71188;DHT22;58893;53.130;8.158;2022-11-20T03:55:42;4.80;65.80
71188;DHT22;58893;53.130;8.158;2022-11-20T03:58:09;4.90;65.80
71188;DHT22;58893;53.130;8.158;2022-11-20T04:00:35;4.90;65.80
71188;DHT22;58893;53.130;8.158;2022-11-20T04:03:01;4.90;65.80
71188;DHT22;58893;53.130;8.158;2022-11-20T04:05:27;4.90;65.80
71188;DHT22;58893;53.130;8.158;2022-11-20T04:07:53;4.90;65.80
71188;DHT22;58893;53.130;8.158;2022-11-20T04:10:19;4.90;65.90
71188;DHT22;58893;53.130;8.158;2022-11-20T04:12:45;4.90;65.80
71188;DHT22;58893;53.130;8.158;2022-11-20T04:15:10;4.90;65.80
71188;DHT22;58893;53.130;8.158;2022-11-20T04:17:36;4.90;65.80
71188;DHT22;58893;53.130;8.158;2022-11-20T04:20:02;4.90;65.80
71188;DHT22;58893;53.130;8.158;2022-11-20T04:22:28;4.90;65.90
71188;DHT22;58893;53.130;8.158;2022-11-20T04:24:54;4.90;66.00
71188;DHT22;58893;53.130;8.158;2022-11-20T04:27:20;4.90;66.10
71188;DHT22;58893;53.130;8.158;2022-11-20T04:29:46;4.90;66.20
71188;DHT22;58893;53.130;8.158;2022-11-20T04:32:11;4.90;66.30
71188;DHT22;58893;53.130;8.158;2022-11-20T04:34:37;4.90;66.40
71188;DHT22;58893;53.130;8.158;2022-11-20T04:37:03;4.90;66.40
71188;DHT22;58893;53.130;8.158;2022-11-20T04:39:28;4.80;66.40
71188;DHT22;58893;53.130;8.158;2022-11-20T04:41:54;4.80;66.50
71188;DHT22;58893;53.130;8.158;2022-11-20T04:44:39;4.90;66.70
71188;DHT22;58893;53.130;8.158;2022-11-20T04:47:05;4.90;66.80
71188;DHT22;58893;53.130;8.158;2022-11-20T04:49:31;4.90;66.90
71188;DHT22;58893;53.130;8.158;2022-11-20T04:51:57;4.90;67.00
71188;DHT22;58893;53.130;8.158;2022-11-20T04:54:23;4.90;67.70
71188;DHT22;58893;53.130;8.158;2022-11-20T04:56:49;4.90;67.00
71188;DHT22;58893;53.130;8.158;2022-11-20T04:59:14;4.90;67.10
71188;DHT22;58893;53.130;8.158;2022-11-20T05:01:40;4.90;67.10
71188;DHT22;58893;53.130;8.158;2022-11-20T05:04:06;4.90;67.10
71188;DHT22;58893;53.130;8.158;2022-11-20T05:06:31;4.90;67.00
71188;DHT22;58893;53.130;8.158;2022-11-20T05:08:57;4.90;67.00
71188;DHT22;58893;53.130;8.158;2022-11-20T05:11:23;4.90;67.10
71188;DHT22;58893;53.130;8.158;2022-11-20T05:13:50;4.90;67.10
71188;DHT22;58893;53.130;8.158;2022-11-20T05:16:21;4.90;67.10
71188;DHT22;58893;53.130;8.158;2022-11-20T05:18:48;4.90;67.10
71188;DHT22;58893;53.130;8.158;2022-11-20T05:21:14;4.90;67.10
71188;DHT22;58893;53.130;8.158;2022-11-20T05:23:41;4.90;67.30
71188;DHT22;58893;53.130;8.158;2022-11-20T05:26:12;4.90;67.30
71188;DHT22;58893;53.130;8.158;2022-11-20T05:28:37;4.90;67.40
71188;DHT22;58893;53.130;8.158;2022-11-20T05:31:08;4.90;67.30
71188;DHT22;58893;53.130;8.158;2022-11-20T05:33:35;4.90;67.30
71188;DHT22;58893;53.130;8.158;2022-11-20T05:36:04;4.90;67.30
71188;DHT22;58893;53.130;8.158;2022-11-20T05:38:30;4.90;67.30
71188;DHT22;58893;53.130;8.158;2022-11-20T05:41:03;4.90;67.30
71188;DHT22;58893;53.130;8.158;2022-11-20T05:43:32;4.90;67.30
71188;DHT22;58893;53.130;8.158;2022-11-20T05:45:58;4.90;67.30
71188;DHT22;58893;53.130;8.158;2022-11-20T05:48:25;4.90;67.20
71188;DHT22;58893;53.130;8.158;2022-11-20T05:50:50;4.90;67.10
71188;DHT22;58893;53.130;8.158;2022-11-20T05:53:16;4.90;67.10
71188;DHT22;58893;53.130;8.158;2022-11-20T05:55:42;4.90;67.00
71188;DHT22;58893;53.130;8.158;2022-11-20T05:58:07;4.90;67.00
71188;DHT22;58893;53.130;8.158;2022-11-20T06:00:33;4.90;66.90
71188;DHT22;58893;53.130;8.158;2022-11-20T06:02:59;4.90;66.80
71188;DHT22;58893;53.130;8.158;2022-11-20T06:05:24;4.90;66.80
71188;DHT22;58893;53.130;8.158;2022-11-20T06:07:50;4.90;66.60
71188;DHT22;58893;53.130;8.158;2022-11-20T06:10:15;4.90;66.60
71188;DHT22;58893;53.130;8.158;2022-11-20T06:12:41;4.90;66.50
71188;DHT22;58893;53.130;8.158;2022-11-20T06:15:07;4.90;66.40
71188;DHT22;58893;53.130;8.158;2022-11-20T06:17:33;4.90;66.30
71188;DHT22;58893;53.130;8.158;2022-11-20T06:19:58;4.90;66.30
71188;DHT22;58893;53.130;8.158;2022-11-20T06:22:24;4.90;66.30
71188;DHT22;58893;53.130;8.158;2022-11-20T06:24:50;4.90;66.30
71188;DHT22;58893;53.130;8.158;2022-11-20T06:27:16;4.90;66.30
71188;DHT22;58893;53.130;8.158;2022-11-20T06:29:42;4.90;66.20
71188;DHT22;58893;53.130;8.158;2022-11-20T06:32:07;4.90;66.10
71188;DHT22;58893;53.130;8.158;2022-11-20T06:34:33;4.90;66.70
71188;DHT22;58893;53.130;8.158;2022-11-20T06:36:58;4.90;66.00
71188;DHT22;58893;53.130;8.158;2022-11-20T06:39:24;4.90;65.80
71188;DHT22;58893;53.130;8.158;2022-11-20T06:41:50;4.90;65.70
71188;DHT22;58893;53.130;8.158;2022-11-20T06:44:15;4.90;65.70
71188;DHT22;58893;53.130;8.158;2022-11-20T06:46:41;4.90;65.60
71188;DHT22;58893;53.130;8.158;2022-11-20T06:49:06;4.90;65.50
71188;DHT22;58893;53.130;8.158;2022-11-20T06:51:32;4.90;65.50
71188;DHT22;58893;53.130;8.158;2022-11-20T06:53:58;4.90;65.50
71188;DHT22;58893;53.130;8.158;2022-11-20T06:56:23;4.90;65.40
71188;DHT22;58893;53.130;8.158;2022-11-20T06:58:49;4.90;65.40
71188;DHT22;58893;53.130;8.158;2022-11-20T07:01:15;4.90;65.40
71188;DHT22;58893;53.130;8.158;2022-11-20T07:03:41;4.90;65.40
71188;DHT22;58893;53.130;8.158;2022-11-20T07:06:08;4.90;65.40
71188;DHT22;58893;53.130;8.158;2022-11-20T07:08:33;4.90;65.40
71188;DHT22;58893;53.130;8.158;2022-11-20T07:11:00;4.90;65.40
71188;DHT22;58893;53.130;8.158;2022-11-20T07:13:27;4.90;65.40
71188;DHT22;58893;53.130;8.158;2022-11-20T07:15:54;4.80;65.30
71188;DHT22;58893;53.130;8.158;2022-11-20T07:18:20;4.90;65.40
71188;DHT22;58893;53.130;8.158;2022-11-20T07:20:46;4.80;65.30
71188;DHT22;58893;53.130;8.158;2022-11-20T07:23:11;4.90;65.40
71188;DHT22;58893;53.130;8.158;2022-11-20T07:25:37;4.90;65.40
71188;DHT22;58893;53.130;8.158;2022-11-20T07:28:03;4.90;65.30
71188;DHT22;58893;53.130;8.158;2022-11-20T07:30:30;4.90;65.20
71188;DHT22;58893;53.130;8.158;2022-11-20T07:32:56;4.90;65.20
71188;DHT22;58893;53.130;8.158;2022-11-20T07:35:23;4.80;65.10
71188;DHT22;58893;53.130;8.158;2022-11-20T07:37:49;4.90;65.10
71188;DHT22;58893;53.130;8.158;2022-11-20T07:40:15;4.90;65.20
71188;DHT22;58893;53.130;8.158;2022-11-20T07:42:51;4.80;65.20
71188;DHT22;58893;53.130;8.158;2022-11-20T07:45:18;4.80;65.40
71188;DHT22;58893;53.130;8.158;2022-11-20T07:47:44;4.80;65.40
71188;DHT22;58893;53.130;8.158;2022-11-20T07:50:10;4.90;65.70
71188;DHT22;58893;53.130;8.158;2022-11-20T07:52:36;5.00;66.00
71188;DHT22;58893;53.130;8.158;2022-11-20T07:55:01;5.20;65.50
71188;DHT22;58893;53.130;8.158;2022-11-20T07:57:27;5.40;65.00
71188;DHT22;58893;53.130;8.158;2022-11-20T07:59:53;5.60;64.50
71188;DHT22;58893;53.130;8.158;2022-11-20T08:02:18;5.80;64.10
71188;DHT22;58893;53.130;8.158;2022-11-20T08:04:44;5.80;63.50
71188;DHT22;58893;53.130;8.158;2022-11-20T08:07:09;5.80;63.30
71188;DHT22;58893;53.130;8.158;2022-11-20T08:09:35;5.70;63.20
71188;DHT22;58893;53.130;8.158;2022-11-20T08:12:01;5.60;63.20
71188;DHT22;58893;53.130;8.158;2022-11-20T08:14:45;5.50;63.20
71188;DHT22;58893;53.130;8.158;2022-11-20T08:17:10;5.40;63.40
71188;DHT22;58893;53.130;8.158;2022-11-20T08:19:36;5.40;63.60
71188;DHT22;58893;53.130;8.158;2022-11-20T08:22:02;5.40;63.80
71188;DHT22;58893;53.130;8.158;2022-11-20T08:24:27;5.30;63.80
71188;DHT22;58893;53.130;8.158;2022-11-20T08:26:53;5.20;63.90
71188;DHT22;58893;53.130;8.158;2022-11-20T08:29:19;5.20;64.00
71188;DHT22;58893;53.130;8.158;2022-11-20T08:31:44;5.20;64.10
71188;DHT22;58893;53.130;8.158;2022-11-20T08:34:10;5.20;64.10
71188;DHT22;58893;53.130;8.158;2022-11-20T08:36:36;5.10;64.10
71188;DHT22;58893;53.130;8.158;2022-11-20T08:39:03;5.10;64.20
71188;DHT22;58893;53.130;8.158;2022-11-20T08:41:29;5.10;64.20
71188;DHT22;58893;53.130;8.158;2022-11-20T08:44:03;5.10;64.20
71188;DHT22;58893;53.130;8.158;2022-11-20T08:46:37;5.10;64.20
71188;DHT22;58893;53.130;8.158;2022-11-20T08:49:08;5.10;64.30
71188;DHT22;58893;53.130;8.158;2022-11-20T08:51:35;5.10;64.20
71188;DHT22;58893;53.130;8.158;2022-11-20T08:54:01;5.10;64.20
71188;DHT22;58893;53.130;8.158;2022-11-20T08:56:27;5.10;64.30
71188;DHT22;58893;53.130;8.158;2022-11-20T08:58:52;5.10;64.30
71188;DHT22;58893;53.130;8.158;2022-11-20T09:01:22;5.10;64.20
71188;DHT22;58893;53.130;8.158;2022-11-20T09:03:48;5.10;64.20
71188;DHT22;58893;53.130;8.158;2022-11-20T09:06:14;5.10;64.10
71188;DHT22;58893;53.130;8.158;2022-11-20T09:08:40;5.10;64.00
71188;DHT22;58893;53.130;8.158;2022-11-20T09:11:06;5.10;64.00
71188;DHT22;58893;53.130;8.158;2022-11-20T09:13:33;5.10;63.90
71188;DHT22;58893;53.130;8.158;2022-11-20T09:16:07;5.10;63.90
71188;DHT22;58893;53.130;8.158;2022-11-20T09:18:35;5.20;63.90
71188;DHT22;58893;53.130;8.158;2022-11-20T09:21:06;5.20;63.70
71188;DHT22;58893;53.130;8.158;2022-11-20T09:23:34;5.10;63.50
71188;DHT22;58893;53.130;8.158;2022-11-20T09:26:09;5.20;63.50
71188;DHT22;58893;53.130;8.158;2022-11-20T09:28:35;5.20;63.40
71188;DHT22;58893;53.130;8.158;2022-11-20T09:31:05;5.20;63.40
71188;DHT22;58893;53.130;8.158;2022-11-20T09:33:31;5.20;63.40
71188;DHT22;58893;53.130;8.158;2022-11-20T09:35:56;5.20;63.40
71188;DHT22;58893;53.130;8.158;2022-11-20T09:38:23;5.30;63.30
71188;DHT22;58893;53.130;8.158;2022-11-20T09:46:19;5.30;63.10
71188;DHT22;58893;53.130;8.158;2022-11-20T09:56:28;5.40;62.40
71188;DHT22;58893;53.130;8.158;2022-11-20T09:58:57;5.40;62.40
71188;DHT22;58893;53.130;8.158;2022-11-20T10:01:35;5.40;62.20
71188;DHT22;58893;53.130;8.158;2022-11-20T10:04:13;5.40;62.00
71188;DHT22;58893;53.130;8.158;2022-11-20T10:06:44;5.40;61.80
71188;DHT22;58893;53.130;8.158;2022-11-20T10:20:01;5.50;60.40
71188;DHT22;58893;53.130;8.158;2022-11-20T10:23:11;5.50;60.10
71188;DHT22;58893;53.130;8.158;2022-11-20T10:25:39;5.50;59.80
71188;DHT22;58893;53.130;8.158;2022-11-20T10:31:14;5.50;59.60
71188;DHT22;58893;53.130;8.158;2022-11-20T10:33:45;5.50;59.50
71188;DHT22;58893;53.130;8.158;2022-11-20T10:36:28;5.50;59.50
71188;DHT22;58893;53.130;8.158;2022-11-20T10:39:10;5.60;59.60
71188;DHT22;58893;53.130;8.158;2022-11-20T10:41:43;5.60;59.90
71188;DHT22;58893;53.130;8.158;2022-11-20T10:44:16;5.60;60.50
71188;DHT22;58893;53.130;8.158;2022-11-20T10:47:19;5.60;59.90
71188;DHT22;58893;53.130;8.158;2022-11-20T10:49:49;5.60;59.90
71188;DHT22;58893;53.130;8.158;2022-11-20T11:00:22;5.70;60.00
71188;DHT22;58893;53.130;8.158;2022-11-20T11:02:53;5.70;59.40
71188;DHT22;58893;53.130;8.158;2022-11-20T11:05:22;5.70;59.40
71188;DHT22;58893;53.130;8.158;2022-11-20T11:07:55;5.70;59.30
71188;DHT22;58893;53.130;8.158;2022-11-20T11:10:22;5.70;59.20
71188;DHT22;58893;53.130;8.158;2022-11-20T11:12:49;5.70;59.10
71188;DHT22;58893;53.130;8.158;2022-11-20T11:15:35;5.70;59.00
71188;DHT22;58893;53.130;8.158;2022-11-20T11:18:02;5.70;59.00
71188;DHT22;58893;53.130;8.158;2022-11-20T11:20:29;5.80;59.00
71188;DHT22;58893;53.130;8.158;2022-11-20T11:22:56;5.80;58.90
71188;DHT22;58893;53.130;8.158;2022-11-20T11:25:29;5.80;58.80
71188;DHT22;58893;53.130;8.158;2022-11-20T11:27:57;5.80;58.50
71188;DHT22;58893;53.130;8.158;2022-11-20T11:30:25;5.80;58.30
71188;DHT22;58893;53.130;8.158;2022-11-20T11:33:03;5.80;58.10
71188;DHT22;58893;53.130;8.158;2022-11-20T11:35:29;5.90;58.10
71188;DHT22;58893;53.130;8.158;2022-11-20T11:38:06;5.90;58.00
71188;DHT22;58893;53.130;8.158;2022-11-20T11:40:35;5.90;57.80
71188;DHT22;58893;53.130;8.158;2022-11-20T11:43:05;5.90;57.70
71188;DHT22;58893;53.130;8.158;2022-11-20T11:45:55;5.90;57.50
71188;DHT22;58893;53.130;8.158;2022-11-20T11:48:21;6.00;57.50
71188;DHT22;58893;53.130;8.158;2022-11-20T11:50:50;6.00;57.40
71188;DHT22;58893;53.130;8.158;2022-11-20T11:53:19;6.00;57.40
71188;DHT22;58893;53.130;8.158;2022-11-20T11:56:08;6.00;57.40
71188;DHT22;58893;53.130;8.158;2022-11-20T11:58:53;6.00;57.20
71188;DHT22;58893;53.130;8.158;2022-11-20T12:01:47;6.00;57.20
71188;DHT22;58893;53.130;8.158;2022-11-20T12:04:19;6.00;57.20
71188;DHT22;58893;53.130;8.158;2022-11-20T12:06:51;6.00;57.20
71188;DHT22;58893;53.130;8.158;2022-11-20T12:09:20;6.00;57.20
71188;DHT22;58893;53.130;8.158;2022-11-20T12:12:02;6.00;57.40
71188;DHT22;58893;53.130;8.158;2022-11-20T12:14:40;6.10;57.40
71188;DHT22;58893;53.130;8.158;2022-11-20T12:17:11;6.10;57.30
71188;DHT22;58893;53.130;8.158;2022-11-20T12:19:37;6.10;57.30
71188;DHT22;58893;53.130;8.158;2022-11-20T12:36:54;6.20;57.80
71188;DHT22;58893;53.130;8.158;2022-11-20T12:39:33;6.20;57.80
71188;DHT22;58893;53.130;8.158;2022-11-20T12:42:08;6.20;57.80
71188;DHT22;58893;53.130;8.158;2022-11-20T12:54:38;6.20;57.70
71188;DHT22;58893;53.130;8.158;2022-11-20T13:07:55;6.20;57.60
71188;DHT22;58893;53.130;8.158;2022-11-20T13:13:19;6.20;57.50
71188;DHT22;58893;53.130;8.158;2022-11-20T13:15:58;6.20;57.50
71188;DHT22;58893;53.130;8.158;2022-11-20T13:18:26;6.10;57.40
71188;DHT22;58893;53.130;8.158;2022-11-20T13:20:51;6.10;57.40
71188;DHT22;58893;53.130;8.158;2022-11-20T13:23:25;6.10;57.40
71188;DHT22;58893;53.130;8.158;2022-11-20T13:25:52;6.10;57.30
71188;DHT22;58893;53.130;8.158;2022-11-20T13:28:29;6.10;57.30
71188;DHT22;58893;53.130;8.158;2022-11-20T13:30:56;6.10;57.20
71188;DHT22;58893;53.130;8.158;2022-11-20T13:33:29;6.00;57.10
71188;DHT22;58893;53.130;8.158;2022-11-20T13:35:59;6.00;57.10
71188;DHT22;58893;53.130;8.158;2022-11-20T13:38:25;6.00;57.10
71188;DHT22;58893;53.130;8.158;2022-11-20T13:43:37;6.00;56.80
71188;DHT22;58893;53.130;8.158;2022-11-20T13:46:05;6.00;56.70
71188;DHT22;58893;53.130;8.158;2022-11-20T13:48:39;6.00;56.60
71188;DHT22;58893;53.130;8.158;2022-11-20T13:56:54;6.00;55.90
71188;DHT22;58893;53.130;8.158;2022-11-20T13:59:34;5.90;55.70
71188;DHT22;58893;53.130;8.158;2022-11-20T14:02:10;5.90;55.60
71188;DHT22;58893;53.130;8.158;2022-11-20T14:04:38;5.90;55.60
71188;DHT22;58893;53.130;8.158;2022-11-20T14:07:06;5.90;55.70
71188;DHT22;58893;53.130;8.158;2022-11-20T14:09:34;5.90;55.90
71188;DHT22;58893;53.130;8.158;2022-11-20T14:12:01;5.80;55.90
71188;DHT22;58893;53.130;8.158;2022-11-20T14:14:28;5.80;56.10
71188;DHT22;58893;53.130;8.158;2022-11-20T14:17:29;5.80;56.20
71188;DHT22;58893;53.130;8.158;2022-11-20T14:19:59;5.80;56.80
71188;DHT22;58893;53.130;8.158;2022-11-20T14:22:26;5.80;56.20
71188;DHT22;58893;53.130;8.158;2022-11-20T14:27:47;5.80;56.20
71188;DHT22;58893;53.130;8.158;2022-11-20T14:30:48;5.80;56.20
71188;DHT22;58893;53.130;8.158;2022-11-20T14:33:14;5.80;56.40
71188;DHT22;58893;53.130;8.158;2022-11-20T14:35:48;5.80;56.80
71188;DHT22;58893;53.130;8.158;2022-11-20T14:38:18;5.80;56.90
71188;DHT22;58893;53.130;8.158;2022-11-20T14:40:44;5.80;56.90
71188;DHT22;58893;53.130;8.158;2022-11-20T14:43:27;5.80;56.90
71188;DHT22;58893;53.130;8.158;2022-11-20T14:45:58;5.80;56.90
71188;DHT22;58893;53.130;8.158;2022-11-20T14:48:34;5.80;56.90
71188;DHT22;58893;53.130;8.158;2022-11-20T14:51:02;5.80;56.80
71188;DHT22;58893;53.130;8.158;2022-11-20T14:53:28;5.80;56.60
71188;DHT22;58893;53.130;8.158;2022-11-20T14:56:01;5.80;56.50
71188;DHT22;58893;53.130;8.158;2022-11-20T14:58:33;5.70;56.40
71188;DHT22;58893;53.130;8.158;2022-11-20T15:01:07;5.70;56.30
71188;DHT22;58893;53.130;8.158;2022-11-20T15:03:38;5.70;56.20
71188;DHT22;58893;53.130;8.158;2022-11-20T15:06:10;5.70;56.30
71188;DHT22;58893;53.130;8.158;2022-11-20T15:08:36;5.70;56.40
71188;DHT22;58893;53.130;8.158;2022-11-20T15:11:02;5.70;56.50
71188;DHT22;58893;53.130;8.158;2022-11-20T15:13:32;5.70;56.30
71188;DHT22;58893;53.130;8.158;2022-11-20T15:16:00;5.70;56.10
71188;DHT22;58893;53.130;8.158;2022-11-20T15:18:31;5.70;56.00
71188;DHT22;58893;53.130;8.158;2022-11-20T15:21:00;5.60;56.00
71188;DHT22;58893;53.130;8.158;2022-11-20T15:23:27;5.60;57.00
71188;DHT22;58893;53.130;8.158;2022-11-20T15:25:54;5.60;56.60
71188;DHT22;58893;53.130;8.158;2022-11-20T15:28:21;5.60;56.80
71188;DHT22;58893;53.130;8.158;2022-11-20T15:30:48;5.60;57.00
71188;DHT22;58893;53.130;8.158;2022-11-20T15:33:16;5.60;57.20
71188;DHT22;58893;53.130;8.158;2022-11-20T15:35:42;5.50;57.20
71188;DHT22;58893;53.130;8.158;2022-11-20T15:38:08;5.50;57.20
71188;DHT22;58893;53.130;8.158;2022-11-20T15:40:34;5.50;57.10
71188;DHT22;58893;53.130;8.158;2022-11-20T15:42:59;5.40;57.00
71188;DHT22;58893;53.130;8.158;2022-11-20T15:45:39;5.40;57.10
71188;DHT22;58893;53.130;8.158;2022-11-20T15:48:09;5.40;57.10
71188;DHT22;58893;53.130;8.158;2022-11-20T15:50:41;5.30;57.00
71188;DHT22;58893;53.130;8.158;2022-11-20T15:53:10;5.30;57.20
71188;DHT22;58893;53.130;8.158;2022-11-20T15:55:35;5.20;57.40
71188;DHT22;58893;53.130;8.158;2022-11-20T15:58:01;5.20;57.50
71188;DHT22;58893;53.130;8.158;2022-11-20T16:00:27;5.20;57.40
71188;DHT22;58893;53.130;8.158;2022-11-20T16:02:52;5.20;57.50
71188;DHT22;58893;53.130;8.158;2022-11-20T16:05:18;5.10;57.60
71188;DHT22;58893;53.130;8.158;2022-11-20T16:07:44;5.10;57.60
71188;DHT22;58893;53.130;8.158;2022-11-20T16:10:09;5.10;57.80
71188;DHT22;58893;53.130;8.158;2022-11-20T16:12:36;5.00;57.80
71188;DHT22;58893;53.130;8.158;2022-11-20T16:15:20;5.00;57.80
71188;DHT22;58893;53.130;8.158;2022-11-20T16:18:04;5.00;57.80
71188;DHT22;58893;53.130;8.158;2022-11-20T16:20:30;5.00;57.90
71188;DHT22;58893;53.130;8.158;2022-11-20T16:22:55;4.90;58.00
71188;DHT22;58893;53.130;8.158;2022-11-20T16:25:21;4.90;58.20
71188;DHT22;58893;53.130;8.158;2022-11-20T16:27:47;4.90;58.30
71188;DHT22;58893;53.130;8.158;2022-11-20T16:30:12;4.80;58.20
71188;DHT22;58893;53.130;8.158;2022-11-20T16:32:38;4.80;58.20
71188;DHT22;58893;53.130;8.158;2022-11-20T16:35:04;4.80;58.20
71188;DHT22;58893;53.130;8.158;2022-11-20T16:37:30;4.80;58.30
71188;DHT22;58893;53.130;8.158;2022-11-20T16:39:55;4.70;58.30
71188;DHT22;58893;53.130;8.158;2022-11-20T16:42:22;4.70;58.30
71188;DHT22;58893;53.130;8.158;2022-11-20T16:44:47;4.70;58.40
71188;DHT22;58893;53.130;8.158;2022-11-20T16:47:13;4.70;58.30
71188;DHT22;58893;53.130;8.158;2022-11-20T16:49:38;4.70;58.20
71188;DHT22;58893;53.130;8.158;2022-11-20T16:52:04;4.70;58.20
71188;DHT22;58893;53.130;8.158;2022-11-20T16:54:29;4.70;57.80
71188;DHT22;58893;53.130;8.158;2022-11-20T16:56:55;4.60;57.50
71188;DHT22;58893;53.130;8.158;2022-11-20T16:59:21;4.60;57.20
71188;DHT22;58893;53.130;8.158;2022-11-20T17:01:46;4.60;57.00
71188;DHT22;58893;53.130;8.158;2022-11-20T17:04:12;4.60;56.90
71188;DHT22;58893;53.130;8.158;2022-11-20T17:06:41;4.60;56.70
71188;DHT22;58893;53.130;8.158;2022-11-20T17:09:09;4.60;56.60
71188;DHT22;58893;53.130;8.158;2022-11-20T17:11:35;4.60;56.60
71188;DHT22;58893;53.130;8.158;2022-11-20T17:14:01;4.60;56.60
71188;DHT22;58893;53.130;8.158;2022-11-20T17:16:35;4.60;56.70
71188;DHT22;58893;53.130;8.158;2022-11-20T17:19:01;4.60;56.80